Time;durP1;ratioP1;P1;durP2;ratioP2;P2;SDS_P1;SDS_P2;PMS_P1;PMS_P2;Temp;Humidity;BMP_temperature;BMP_pressure;BME280_temperature;BME280_humidity;BME280_pressure;Samples;Min_cycle;Max_cycle;Signal;HPM_P1;HPM_P2
2021/08/02 00:02:11;;;;;;;;;;;21.80;60.20;;;;;;5042904;28;19955;-59
2021/08/02 00:04:38;;;;;;;;;;;21.80;60.30;;;;;;5037809;28;20336;-59
2021/08/02 00:07:06;;;;;;;;;;;21.80;60.30;;;;;;5038719;28;19921;-59
2021/08/02 00:09:35;;;;;;;;;;;21.80;60.30;;;;;;5025480;28;20412;-57
2021/08/02 00:12:05;;;;;;;;;;;21.70;60.30;;;;;;5043619;28;19952;-60
2021/08/02 00:14:31;;;;;;;;;;;21.70;60.30;;;;;;5043308;28;20596;-59
2021/08/02 00:16:56;;;;;;;;;;;21.80;60.40;;;;;;5042661;28;19966;-59
2021/08/02 00:19:22;;;;;;;;;;;21.80;60.40;;;;;;5041332;28;20413;-59
2021/08/02 00:21:48;;;;;;;;;;;21.80;60.40;;;;;;5043187;28;19917;-58
2021/08/02 00:24:14;;;;;;;;;;;21.80;60.40;;;;;;5043438;28;19924;-59
2021/08/02 00:26:39;;;;;;;;;;;21.70;60.40;;;;;;5041023;28;19927;-59
2021/08/02 00:29:05;;;;;;;;;;;21.70;60.30;;;;;;5042302;28;19920;-59
2021/08/02 00:31:30;;;;;;;;;;;21.70;60.30;;;;;;5043582;28;19913;-59
2021/08/02 00:33:56;;;;;;;;;;;21.80;60.40;;;;;;5043323;28;20090;-59
2021/08/02 00:36:27;;;;;;;;;;;21.80;60.50;;;;;;5043158;28;19921;-59
2021/08/02 00:38:58;;;;;;;;;;;21.70;60.40;;;;;;5041442;28;20290;-59
2021/08/02 00:41:42;;;;;;;;;;;21.70;60.30;;;;;;5041553;28;20019;-58
2021/08/02 00:44:14;;;;;;;;;;;21.70;60.30;;;;;;5027720;28;20727;-58
2021/08/02 00:46:40;;;;;;;;;;;21.70;60.30;;;;;;5042504;28;20516;-58
2021/08/02 00:49:06;;;;;;;;;;;21.70;60.30;;;;;;5043009;28;20016;-61
2021/08/02 00:51:36;;;;;;;;;;;21.70;60.30;;;;;;5041292;28;20325;-59
2021/08/02 00:54:01;;;;;;;;;;;21.70;60.30;;;;;;5042237;28;20363;-59
2021/08/02 00:56:28;;;;;;;;;;;21.70;60.40;;;;;;5042387;28;19995;-60
2021/08/02 00:58:53;;;;;;;;;;;21.70;60.50;;;;;;5040394;28;20477;-59
2021/08/02 01:01:19;;;;;;;;;;;21.70;61.10;;;;;;5030480;28;19914;-59
2021/08/02 01:03:44;;;;;;;;;;;21.70;60.50;;;;;;5008179;28;20397;-60
2021/08/02 01:06:10;;;;;;;;;;;21.70;60.50;;;;;;5003857;28;19914;-59
2021/08/02 01:08:37;;;;;;;;;;;21.70;60.50;;;;;;5023237;28;19920;-59
2021/08/02 01:11:03;;;;;;;;;;;21.70;60.60;;;;;;5022639;28;19913;-59
2021/08/02 01:13:30;;;;;;;;;;;21.70;60.60;;;;;;5023000;28;19917;-62
2021/08/02 01:15:58;;;;;;;;;;;21.70;60.60;;;;;;5021370;28;20336;-60
2021/08/02 01:18:23;;;;;;;;;;;21.70;60.60;;;;;;5018908;28;19971;-59
2021/08/02 01:20:52;;;;;;;;;;;21.70;60.60;;;;;;5023772;28;19913;-59
2021/08/02 01:23:18;;;;;;;;;;;21.70;60.60;;;;;;5023917;28;19917;-60
2021/08/02 01:25:43;;;;;;;;;;;21.70;60.60;;;;;;5023063;28;19928;-60
2021/08/02 01:28:14;;;;;;;;;;;21.70;60.60;;;;;;5021504;28;19917;-61
2021/08/02 01:30:40;;;;;;;;;;;21.70;60.60;;;;;;5022920;28;19996;-60
2021/08/02 01:33:06;;;;;;;;;;;21.70;60.60;;;;;;5023726;28;19995;-59
2021/08/02 01:35:31;;;;;;;;;;;21.70;60.60;;;;;;5022989;28;19917;-59
2021/08/02 01:37:57;;;;;;;;;;;21.70;60.60;;;;;;5021032;28;19929;-60
2021/08/02 01:40:22;;;;;;;;;;;21.70;60.70;;;;;;5020997;28;20884;-58
2021/08/02 01:42:48;;;;;;;;;;;21.70;60.60;;;;;;5022862;28;19928;-58
2021/08/02 01:45:13;;;;;;;;;;;21.70;60.60;;;;;;5022225;28;19913;-59
2021/08/02 01:47:40;;;;;;;;;;;21.70;60.60;;;;;;5022310;28;19960;-60
2021/08/02 01:50:24;;;;;;;;;;;21.70;60.60;;;;;;5021554;28;19924;-59
2021/08/02 01:52:54;;;;;;;;;;;21.70;60.50;;;;;;5042359;28;19921;-59
2021/08/02 01:55:20;;;;;;;;;;;21.60;60.60;;;;;;5042196;28;20008;-58
2021/08/02 01:57:45;;;;;;;;;;;21.70;60.60;;;;;;5038906;28;20008;-59
2021/08/02 02:00:11;;;;;;;;;;;21.60;60.60;;;;;;5042180;28;20417;-58
2021/08/02 02:02:37;;;;;;;;;;;21.60;60.60;;;;;;5042918;28;19923;-60
2021/08/02 02:05:07;;;;;;;;;;;21.60;60.60;;;;;;5037203;28;19953;-58
2021/08/02 02:07:52;;;;;;;;;;;21.60;60.60;;;;;;5042151;28;19931;-59
2021/08/02 02:10:18;;;;;;;;;;;21.60;60.60;;;;;;5039856;28;19945;-59
2021/08/02 02:12:43;;;;;;;;;;;21.60;60.60;;;;;;5041440;28;20473;-59
2021/08/02 02:15:09;;;;;;;;;;;21.60;60.60;;;;;;5041798;28;19921;-64
2021/08/02 02:17:35;;;;;;;;;;;21.60;60.60;;;;;;5041142;28;19913;-59
2021/08/02 02:20:00;;;;;;;;;;;21.60;60.70;;;;;;5040466;28;19939;-59
2021/08/02 02:22:26;;;;;;;;;;;21.60;60.70;;;;;;5024222;28;19913;-59
2021/08/02 02:24:51;;;;;;;;;;;21.60;60.70;;;;;;5040171;28;19924;-58
2021/08/02 02:27:17;;;;;;;;;;;21.60;60.80;;;;;;5040623;28;20708;-59
2021/08/02 02:29:42;;;;;;;;;;;21.60;60.90;;;;;;5040069;28;19931;-59
2021/08/02 02:32:08;;;;;;;;;;;21.60;60.90;;;;;;5041314;28;19917;-58
2021/08/02 02:34:34;;;;;;;;;;;21.60;60.90;;;;;;5040361;28;20739;-59
2021/08/02 02:37:00;;;;;;;;;;;21.60;61.50;;;;;;5041792;28;19924;-59
2021/08/02 02:39:28;;;;;;;;;;;21.60;60.90;;;;;;5044388;28;20309;-58
2021/08/02 02:41:53;;;;;;;;;;;21.60;60.90;;;;;;5044020;28;19967;-57
2021/08/02 02:44:19;;;;;;;;;;;21.60;60.80;;;;;;5045027;28;19913;-58
2021/08/02 02:46:44;;;;;;;;;;;21.60;60.80;;;;;;5045076;28;19960;-58
2021/08/02 02:49:10;;;;;;;;;;;21.60;60.90;;;;;;5044979;28;20303;-57
2021/08/02 02:51:35;;;;;;;;;;;21.60;61.00;;;;;;5044066;28;19920;-58
2021/08/02 02:54:01;;;;;;;;;;;21.60;61.00;;;;;;5044981;28;19978;-59
2021/08/02 02:56:26;;;;;;;;;;;21.60;61.00;;;;;;5044988;28;19917;-59
2021/08/02 02:58:52;;;;;;;;;;;21.60;61.10;;;;;;5044477;28;20004;-59
2021/08/02 03:01:18;;;;;;;;;;;21.50;61.70;;;;;;5043850;28;19913;-60
2021/08/02 03:03:44;;;;;;;;;;;21.60;61.10;;;;;;5044143;28;19920;-61
2021/08/02 03:06:10;;;;;;;;;;;21.60;61.10;;;;;;5049652;28;20435;-59
2021/08/02 03:08:35;;;;;;;;;;;21.60;61.10;;;;;;5042862;28;19923;-58
2021/08/02 03:11:01;;;;;;;;;;;21.50;61.10;;;;;;5044895;28;20298;-59
2021/08/02 03:13:27;;;;;;;;;;;21.50;61.10;;;;;;5044617;28;19913;-59
2021/08/02 03:15:52;;;;;;;;;;;21.50;61.20;;;;;;5044836;28;20297;-59
2021/08/02 03:18:18;;;;;;;;;;;21.50;61.10;;;;;;5043029;28;20077;-59
2021/08/02 03:20:43;;;;;;;;;;;21.50;61.10;;;;;;5043020;28;19917;-60
2021/08/02 03:23:17;;;;;;;;;;;21.50;61.20;;;;;;5043790;28;19916;-59
2021/08/02 03:25:48;;;;;;;;;;;21.50;61.20;;;;;;5042474;28;19917;-60
2021/08/02 03:28:31;;;;;;;;;;;21.50;61.30;;;;;;5044205;28;20569;-58
2021/08/02 03:30:57;;;;;;;;;;;21.50;61.30;;;;;;5044505;28;19920;-60
2021/08/02 03:33:24;;;;;;;;;;;21.50;61.20;;;;;;5043012;28;20301;-60
2021/08/02 03:35:49;;;;;;;;;;;21.50;61.20;;;;;;5042697;28;19917;-58
2021/08/02 03:38:15;;;;;;;;;;;21.50;61.30;;;;;;5043676;28;19990;-58
2021/08/02 03:40:41;;;;;;;;;;;21.50;61.40;;;;;;5040192;28;19917;-60
2021/08/02 03:43:07;;;;;;;;;;;21.50;61.50;;;;;;5040756;28;19939;-59
2021/08/02 03:45:33;;;;;;;;;;;21.50;61.40;;;;;;5041967;28;20373;-60
2021/08/02 03:47:58;;;;;;;;;;;21.50;61.40;;;;;;5043358;28;19971;-58
2021/08/02 03:50:24;;;;;;;;;;;21.50;61.60;;;;;;5041962;28;20364;-59
2021/08/02 03:52:49;;;;;;;;;;;21.50;61.60;;;;;;5044366;28;19921;-59
2021/08/02 03:55:15;;;;;;;;;;;21.50;61.70;;;;;;5044192;28;20436;-60
2021/08/02 03:57:41;;;;;;;;;;;21.50;61.70;;;;;;5042717;28;20001;-59
2021/08/02 04:00:07;;;;;;;;;;;21.50;61.80;;;;;;5025996;28;19913;-59
2021/08/02 04:02:33;;;;;;;;;;;21.50;61.90;;;;;;5044105;28;21678;-60
2021/08/02 04:04:58;;;;;;;;;;;21.50;61.90;;;;;;5041143;28;19939;-59
2021/08/02 04:07:24;;;;;;;;;;;21.50;62.00;;;;;;5044198;28;20386;-59
2021/08/02 04:09:49;;;;;;;;;;;21.50;62.00;;;;;;5043739;28;19928;-59
2021/08/02 04:12:15;;;;;;;;;;;21.50;62.10;;;;;;5044252;28;19913;-64
2021/08/02 04:14:40;;;;;;;;;;;21.50;62.20;;;;;;5044594;28;19913;-58
2021/08/02 04:17:05;;;;;;;;;;;21.40;62.10;;;;;;5043980;28;19924;-60
2021/08/02 04:19:31;;;;;;;;;;;21.40;62.10;;;;;;5043641;28;19919;-59
2021/08/02 04:21:59;;;;;;;;;;;21.40;62.30;;;;;;5043903;28;19920;-60
2021/08/02 04:24:27;;;;;;;;;;;21.40;62.30;;;;;;5043719;28;20001;-60
2021/08/02 04:26:53;;;;;;;;;;;21.40;62.40;;;;;;5043685;28;20527;-58
2021/08/02 04:29:18;;;;;;;;;;;21.40;62.40;;;;;;5043298;28;19960;-60
2021/08/02 04:31:44;;;;;;;;;;;21.40;62.50;;;;;;5043906;28;19916;-60
2021/08/02 04:34:09;;;;;;;;;;;21.40;62.70;;;;;;5043489;28;19970;-60
2021/08/02 04:36:34;;;;;;;;;;;21.40;62.70;;;;;;5043301;28;20287;-59
2021/08/02 04:39:00;;;;;;;;;;;21.40;62.70;;;;;;5043148;28;19921;-59
2021/08/02 04:41:25;;;;;;;;;;;21.40;62.70;;;;;;5043319;28;19920;-60
2021/08/02 04:43:51;;;;;;;;;;;21.40;62.60;;;;;;5043221;28;19936;-59
2021/08/02 04:46:16;;;;;;;;;;;21.40;62.90;;;;;;5041771;28;20313;-60
2021/08/02 04:48:42;;;;;;;;;;;21.40;62.90;;;;;;5043307;28;19917;-59
2021/08/02 04:51:07;;;;;;;;;;;21.40;62.90;;;;;;5043139;28;20008;-59
2021/08/02 04:53:33;;;;;;;;;;;21.40;62.90;;;;;;5043124;28;19913;-59
2021/08/02 04:55:58;;;;;;;;;;;21.40;63.00;;;;;;5043073;28;20425;-59
2021/08/02 04:58:24;;;;;;;;;;;21.40;62.80;;;;;;5042732;28;19912;-59
2021/08/02 05:00:49;;;;;;;;;;;21.40;62.90;;;;;;5042792;28;19925;-57
2021/08/02 05:03:15;;;;;;;;;;;21.40;62.90;;;;;;5056448;23;19964;-57
2021/08/02 05:05:40;;;;;;;;;;;21.40;62.80;;;;;;5010238;28;19917;-57
2021/08/02 05:08:06;;;;;;;;;;;21.40;62.90;;;;;;5019661;28;20047;-60
2021/08/02 05:10:32;;;;;;;;;;;21.40;63.10;;;;;;5020075;28;20089;-59
2021/08/02 05:12:58;;;;;;;;;;;21.40;63.00;;;;;;5020335;28;19921;-59
2021/08/02 05:15:23;;;;;;;;;;;21.40;63.10;;;;;;5020086;28;19955;-57
2021/08/02 05:17:49;;;;;;;;;;;21.40;63.10;;;;;;5020302;28;19963;-59
2021/08/02 05:20:18;;;;;;;;;;;21.40;63.30;;;;;;5020913;28;19971;-58
2021/08/02 05:22:43;;;;;;;;;;;21.40;63.10;;;;;;5010232;28;19940;-58
2021/08/02 05:25:09;;;;;;;;;;;21.30;63.80;;;;;;5022579;28;19921;-59
2021/08/02 05:27:34;;;;;;;;;;;21.40;63.30;;;;;;5023066;28;19924;-57
2021/08/02 05:30:00;;;;;;;;;;;21.40;63.30;;;;;;5021809;28;19914;-58
2021/08/02 05:32:25;;;;;;;;;;;21.30;63.30;;;;;;5020657;28;19939;-59
2021/08/02 05:34:51;;;;;;;;;;;21.40;63.20;;;;;;5021902;28;19924;-58
2021/08/02 05:37:16;;;;;;;;;;;21.30;63.40;;;;;;5021940;28;19914;-57
2021/08/02 05:39:42;;;;;;;;;;;21.40;63.50;;;;;;5020292;28;20361;-59
2021/08/02 05:42:07;;;;;;;;;;;21.30;63.30;;;;;;5021980;28;19917;-59
2021/08/02 05:44:33;;;;;;;;;;;21.30;63.30;;;;;;5020820;28;20587;-57
2021/08/02 05:46:58;;;;;;;;;;;21.30;63.10;;;;;;5021916;28;19956;-57
2021/08/02 05:49:24;;;;;;;;;;;21.30;63.30;;;;;;5021427;28;20378;-59
2021/08/02 05:51:49;;;;;;;;;;;21.30;63.40;;;;;;5021240;28;19922;-58
2021/08/02 05:54:15;;;;;;;;;;;21.30;63.30;;;;;;5022506;28;20317;-58
2021/08/02 05:56:40;;;;;;;;;;;21.30;63.20;;;;;;5021751;28;19914;-56
2021/08/02 05:59:06;;;;;;;;;;;21.30;63.40;;;;;;5021214;28;19921;-56
2021/08/02 06:01:31;;;;;;;;;;;21.30;63.30;;;;;;5021214;28;19917;-58
2021/08/02 06:03:57;;;;;;;;;;;21.30;63.60;;;;;;5009338;28;19917;-59
2021/08/02 06:06:22;;;;;;;;;;;21.30;63.50;;;;;;5018131;28;20440;-58
2021/08/02 06:08:47;;;;;;;;;;;21.30;63.30;;;;;;5018834;28;19914;-58
2021/08/02 06:11:13;;;;;;;;;;;21.30;63.50;;;;;;5018359;28;19913;-57
2021/08/02 06:13:38;;;;;;;;;;;21.30;63.70;;;;;;5022078;28;19917;-59
2021/08/02 06:16:04;;;;;;;;;;;21.30;63.50;;;;;;5024812;28;20393;-59
2021/08/02 06:18:29;;;;;;;;;;;21.20;63.40;;;;;;5024917;28;19917;-59
2021/08/02 06:20:55;;;;;;;;;;;21.30;63.60;;;;;;5024038;28;20354;-59
2021/08/02 06:23:20;;;;;;;;;;;21.30;63.80;;;;;;5024298;28;20179;-59
2021/08/02 06:25:46;;;;;;;;;;;21.30;63.70;;;;;;5024389;28;19913;-59
2021/08/02 06:28:11;;;;;;;;;;;21.30;63.80;;;;;;5024249;28;19917;-59
2021/08/02 06:30:36;;;;;;;;;;;21.30;63.80;;;;;;5024439;28;20357;-59
2021/08/02 06:33:02;;;;;;;;;;;21.20;63.50;;;;;;5023942;28;19924;-59
2021/08/02 06:35:27;;;;;;;;;;;21.30;63.70;;;;;;5024656;28;19923;-58
2021/08/02 06:37:53;;;;;;;;;;;21.30;63.70;;;;;;5022857;28;20321;-58
2021/08/02 06:40:18;;;;;;;;;;;21.20;63.60;;;;;;5024431;28;19967;-58
2021/08/02 06:42:44;;;;;;;;;;;21.20;63.70;;;;;;5024491;28;19924;-58
2021/08/02 06:45:09;;;;;;;;;;;21.20;63.70;;;;;;5024839;28;19921;-57
2021/08/02 06:47:35;;;;;;;;;;;21.20;63.60;;;;;;5023243;28;19925;-58
2021/08/02 06:50:00;;;;;;;;;;;21.20;63.70;;;;;;5022887;28;19917;-59
2021/08/02 06:52:26;;;;;;;;;;;21.20;63.60;;;;;;5023741;28;19920;-58
2021/08/02 06:54:51;;;;;;;;;;;21.20;63.70;;;;;;5024066;28;19928;-59
2021/08/02 06:57:17;;;;;;;;;;;21.20;63.70;;;;;;5025608;28;20283;-59
2021/08/02 06:59:42;;;;;;;;;;;21.20;63.80;;;;;;5023912;28;19913;-58
2021/08/02 07:02:08;;;;;;;;;;;21.20;63.80;;;;;;5024695;28;20294;-59
2021/08/02 07:04:33;;;;;;;;;;;21.20;64.00;;;;;;5019477;28;19936;-58
2021/08/02 07:06:58;;;;;;;;;;;21.20;64.00;;;;;;5024322;28;19921;-58
2021/08/02 07:09:24;;;;;;;;;;;21.20;64.00;;;;;;5024064;28;19917;-58
2021/08/02 07:11:49;;;;;;;;;;;21.20;64.10;;;;;;5024869;28;19921;-59
2021/08/02 07:14:15;;;;;;;;;;;21.20;64.00;;;;;;5024873;28;20535;-59
2021/08/02 07:16:40;;;;;;;;;;;21.20;64.00;;;;;;5026227;28;19962;-58
2021/08/02 07:19:06;;;;;;;;;;;21.20;64.20;;;;;;5024347;28;19920;-59
2021/08/02 07:21:31;;;;;;;;;;;21.20;64.30;;;;;;5024230;28;20444;-59
2021/08/02 07:23:57;;;;;;;;;;;21.20;64.30;;;;;;5023866;28;19913;-58
2021/08/02 07:26:22;;;;;;;;;;;21.20;64.00;;;;;;5023520;28;19917;-60
2021/08/02 07:28:48;;;;;;;;;;;21.20;64.10;;;;;;5024436;28;20184;-59
2021/08/02 07:31:15;;;;;;;;;;;21.20;64.10;;;;;;5023050;28;19967;-59
2021/08/02 07:33:40;;;;;;;;;;;21.10;64.10;;;;;;5024161;28;19920;-59
2021/08/02 07:36:07;;;;;;;;;;;21.20;64.80;;;;;;5023736;28;19913;-59
2021/08/02 07:38:33;;;;;;;;;;;21.10;64.10;;;;;;5021052;28;19914;-59
2021/08/02 07:40:59;;;;;;;;;;;21.10;64.20;;;;;;5022700;28;20148;-58
2021/08/02 07:43:24;;;;;;;;;;;21.10;64.10;;;;;;5022106;28;19967;-58
2021/08/02 07:45:49;;;;;;;;;;;21.10;64.40;;;;;;5023812;28;19953;-58
2021/08/02 07:48:15;;;;;;;;;;;21.10;64.20;;;;;;5023494;28;19917;-60
2021/08/02 07:50:40;;;;;;;;;;;21.10;64.30;;;;;;5021652;28;20424;-59
2021/08/02 07:53:06;;;;;;;;;;;21.10;64.30;;;;;;5023318;28;19927;-58
2021/08/02 07:55:31;;;;;;;;;;;21.10;64.30;;;;;;5012316;28;19921;-58
2021/08/02 07:57:57;;;;;;;;;;;21.20;64.70;;;;;;5015087;28;20606;-58
2021/08/02 08:00:22;;;;;;;;;;;21.10;64.60;;;;;;4984583;28;19921;-57
2021/08/02 08:02:48;;;;;;;;;;;21.20;64.80;;;;;;4984644;28;19914;-59
2021/08/02 08:05:13;;;;;;;;;;;21.20;64.60;;;;;;4977794;28;19928;-56
2021/08/02 08:07:49;;;;;;;;;;;21.10;64.70;;;;;;4984526;28;20276;-58
2021/08/02 08:10:15;;;;;;;;;;;21.10;65.40;;;;;;4984784;28;20286;-59
2021/08/02 08:12:41;;;;;;;;;;;21.10;65.60;;;;;;4984641;28;19943;-59
2021/08/02 08:15:06;;;;;;;;;;;21.10;65.00;;;;;;4984217;28;19917;-57
2021/08/02 08:17:32;;;;;;;;;;;21.10;64.90;;;;;;4984509;28;19924;-59
2021/08/02 08:19:57;;;;;;;;;;;21.10;65.00;;;;;;4984176;28;20605;-58
2021/08/02 08:22:24;;;;;;;;;;;21.10;64.80;;;;;;4984713;28;19914;-58
2021/08/02 08:24:50;;;;;;;;;;;21.10;64.90;;;;;;4988391;28;19921;-62
2021/08/02 08:27:16;;;;;;;;;;;21.10;64.90;;;;;;4984159;28;20370;-62
2021/08/02 08:29:41;;;;;;;;;;;21.10;64.90;;;;;;4983742;28;19918;-61
2021/08/02 08:32:07;;;;;;;;;;;21.10;64.90;;;;;;4984390;28;19918;-62
2021/08/02 08:34:32;;;;;;;;;;;21.10;64.70;;;;;;4984219;28;19924;-61
2021/08/02 08:36:58;;;;;;;;;;;21.10;64.50;;;;;;4983596;28;20660;-62
2021/08/02 08:39:23;;;;;;;;;;;21.10;64.50;;;;;;4983407;28;19917;-62
2021/08/02 08:41:49;;;;;;;;;;;21.10;64.70;;;;;;4984013;28;19920;-59
2021/08/02 08:44:14;;;;;;;;;;;21.10;64.70;;;;;;5006143;28;19945;-59
2021/08/02 08:46:40;;;;;;;;;;;21.10;64.70;;;;;;4982348;28;19972;-59
2021/08/02 08:49:06;;;;;;;;;;;21.10;64.70;;;;;;4983240;28;20001;-58
2021/08/02 08:51:31;;;;;;;;;;;21.10;64.90;;;;;;4982265;28;19923;-56
2021/08/02 08:53:56;;;;;;;;;;;21.10;65.40;;;;;;4983658;28;19918;-58
2021/08/02 08:56:22;;;;;;;;;;;21.10;65.30;;;;;;4983951;28;19925;-57
2021/08/02 08:58:48;;;;;;;;;;;21.10;65.10;;;;;;4983250;28;20733;-58
2021/08/02 09:01:14;;;;;;;;;;;21.10;64.80;;;;;;4983794;28;19918;-59
2021/08/02 09:03:51;;;;;;;;;;;21.10;64.80;;;;;;4983820;28;20636;-61
2021/08/02 09:06:17;;;;;;;;;;;21.10;64.70;;;;;;5002706;28;19920;-62
2021/08/02 09:08:43;;;;;;;;;;;21.10;64.70;;;;;;4983068;28;19918;-61
2021/08/02 09:11:08;;;;;;;;;;;21.10;64.70;;;;;;4981833;28;20382;-62
2021/08/02 09:13:34;;;;;;;;;;;21.10;64.70;;;;;;4983624;28;19925;-59
2021/08/02 09:16:21;;;;;;;;;;;21.10;64.70;;;;;;4981969;28;19925;-59
2021/08/02 09:19:03;;;;;;;;;;;21.10;64.70;;;;;;4983058;28;19917;-57
2021/08/02 09:21:44;;;;;;;;;;;21.10;64.80;;;;;;4983425;28;19918;-53
2021/08/02 09:24:10;;;;;;;;;;;21.10;64.90;;;;;;4983510;28;20008;-58
2021/08/02 09:26:36;;;;;;;;;;;21.10;64.70;;;;;;4983319;28;20008;-59
2021/08/02 09:29:02;;;;;;;;;;;21.10;64.80;;;;;;4982910;28;20094;-58
2021/08/02 09:31:31;;;;;;;;;;;21.10;64.70;;;;;;4983660;28;20471;-58
2021/08/02 09:33:59;;;;;;;;;;;21.10;64.80;;;;;;4982622;28;19968;-59
2021/08/02 09:36:25;;;;;;;;;;;21.10;64.90;;;;;;4985267;28;19914;-57
2021/08/02 09:38:53;;;;;;;;;;;21.00;64.60;;;;;;4981172;28;19918;-58
2021/08/02 09:41:20;;;;;;;;;;;21.00;64.50;;;;;;4983192;28;20008;-59
2021/08/02 09:43:48;;;;;;;;;;;21.10;64.50;;;;;;4983165;28;19921;-58
2021/08/02 09:46:14;;;;;;;;;;;21.10;64.50;;;;;;4983191;28;20012;-59
2021/08/02 09:48:44;;;;;;;;;;;21.10;64.40;;;;;;4983371;28;19918;-59
2021/08/02 09:51:13;;;;;;;;;;;21.00;64.20;;;;;;4987134;28;19926;-56
2021/08/02 09:53:42;;;;;;;;;;;21.00;64.30;;;;;;4987189;28;19913;-58
2021/08/02 09:56:11;;;;;;;;;;;21.10;64.30;;;;;;4982537;28;19914;-59
2021/08/02 09:58:37;;;;;;;;;;;21.00;64.20;;;;;;4993951;28;19928;-57
2021/08/02 10:01:02;;;;;;;;;;;21.00;64.10;;;;;;4985332;28;20302;-58
2021/08/02 10:03:28;;;;;;;;;;;21.10;64.00;;;;;;4987047;28;19918;-58
2021/08/02 10:05:54;;;;;;;;;;;21.00;63.90;;;;;;4940764;28;21923;-57
2021/08/02 10:08:19;;;;;;;;;;;21.00;63.90;;;;;;4978618;28;19917;-59
2021/08/02 10:10:45;;;;;;;;;;;21.00;64.50;;;;;;4984883;28;19918;-56
2021/08/02 10:13:10;;;;;;;;;;;21.00;63.90;;;;;;4986720;28;19972;-58
2021/08/02 10:15:36;;;;;;;;;;;21.00;64.10;;;;;;4986838;28;19937;-58
2021/08/02 10:18:02;;;;;;;;;;;21.00;64.10;;;;;;4985275;28;19917;-58
2021/08/02 10:20:28;;;;;;;;;;;21.00;63.90;;;;;;4986916;28;20206;-59
2021/08/02 10:22:53;;;;;;;;;;;21.00;63.90;;;;;;4987138;28;20008;-57
2021/08/02 10:25:30;;;;;;;;;;;21.00;63.90;;;;;;4986544;28;20363;-59
2021/08/02 10:28:04;;;;;;;;;;;21.00;63.80;;;;;;4984990;28;20510;-59
2021/08/02 10:30:29;;;;;;;;;;;21.00;63.80;;;;;;4986232;28;20445;-57
2021/08/02 10:32:55;;;;;;;;;;;21.00;63.80;;;;;;4984951;28;19968;-57
2021/08/02 10:35:36;;;;;;;;;;;21.00;63.90;;;;;;4986262;28;19914;-59
2021/08/02 10:38:02;;;;;;;;;;;21.00;63.90;;;;;;4974965;28;19921;-59
2021/08/02 10:40:28;;;;;;;;;;;21.00;63.90;;;;;;4986225;28;20393;-57
2021/08/02 10:42:53;;;;;;;;;;;21.00;63.90;;;;;;4986229;28;19957;-58
2021/08/02 10:45:29;;;;;;;;;;;21.00;63.90;;;;;;4984503;28;19917;-57
2021/08/02 10:47:54;;;;;;;;;;;21.00;63.90;;;;;;4985671;28;19925;-59
2021/08/02 10:50:23;;;;;;;;;;;21.00;63.90;;;;;;4985714;28;19925;-58
2021/08/02 10:52:48;;;;;;;;;;;21.00;63.90;;;;;;4985864;28;19918;-59
2021/08/02 10:55:14;;;;;;;;;;;21.00;63.90;;;;;;4984214;28;19963;-59
2021/08/02 10:57:40;;;;;;;;;;;21.00;63.90;;;;;;4985713;28;20409;-59
2021/08/02 11:00:16;;;;;;;;;;;21.00;63.90;;;;;;4985738;28;19918;-58
2021/08/02 11:02:48;;;;;;;;;;;21.00;64.00;;;;;;4984576;28;19942;-59
2021/08/02 11:05:14;;;;;;;;;;;21.00;63.90;;;;;;5023060;23;20480;-72
2021/08/02 11:07:39;;;;;;;;;;;20.90;63.90;;;;;;5025361;28;19917;-71
2021/08/02 11:10:05;;;;;;;;;;;21.00;64.00;;;;;;5026348;28;20614;-71
2021/08/02 11:12:31;;;;;;;;;;;21.00;64.00;;;;;;5026510;28;19924;-72
2021/08/02 11:14:56;;;;;;;;;;;21.00;64.00;;;;;;5035160;28;19941;-71
2021/08/02 11:17:23;;;;;;;;;;;21.00;64.20;;;;;;5047597;28;20406;-69
2021/08/02 11:20:01;;;;;;;;;;;21.00;64.00;;;;;;5047457;28;19959;-72
2021/08/02 11:22:26;;;;;;;;;;;21.00;64.00;;;;;;5047673;28;19963;-72
2021/08/02 11:24:53;;;;;;;;;;;21.00;64.00;;;;;;5047352;28;19917;-72
2021/08/02 11:27:18;;;;;;;;;;;21.00;64.00;;;;;;5046626;28;19979;-72
2021/08/02 11:29:47;;;;;;;;;;;20.90;63.90;;;;;;5047044;28;19932;-72
2021/08/02 11:32:13;;;;;;;;;;;21.00;63.90;;;;;;5047119;28;19924;-71
2021/08/02 11:34:41;;;;;;;;;;;21.00;63.90;;;;;;5046795;28;19948;-72
2021/08/02 11:37:08;;;;;;;;;;;21.00;64.00;;;;;;5047105;28;19913;-71
2021/08/02 11:39:34;;;;;;;;;;;21.00;64.10;;;;;;5046939;28;19913;-71
2021/08/02 11:42:10;;;;;;;;;;;21.00;64.10;;;;;;5045751;28;20613;-72
2021/08/02 11:44:39;;;;;;;;;;;20.90;64.10;;;;;;5046865;28;19919;-72
2021/08/02 11:47:07;;;;;;;;;;;20.90;64.10;;;;;;5046995;28;20024;-72
2021/08/02 11:49:34;;;;;;;;;;;20.90;64.20;;;;;;5045746;28;20406;-71
2021/08/02 11:51:59;;;;;;;;;;;20.90;64.20;;;;;;5045619;28;20003;-71
2021/08/02 11:54:25;;;;;;;;;;;20.90;64.20;;;;;;5046418;28;20013;-72
2021/08/02 11:56:51;;;;;;;;;;;21.00;64.30;;;;;;5046807;28;19917;-72
2021/08/02 11:59:19;;;;;;;;;;;20.90;64.20;;;;;;5044979;28;20007;-71
2021/08/02 12:01:48;;;;;;;;;;;21.00;64.30;;;;;;5046647;28;20391;-72
2021/08/02 12:04:14;;;;;;;;;;;20.90;64.30;;;;;;5036815;28;20004;-71
2021/08/02 12:06:49;;;;;;;;;;;21.00;64.30;;;;;;5046505;28;20003;-72
2021/08/02 12:09:15;;;;;;;;;;;20.90;64.30;;;;;;5046403;28;19913;-71
2021/08/02 12:11:41;;;;;;;;;;;20.90;64.30;;;;;;5046165;28;20370;-71
2021/08/02 12:14:06;;;;;;;;;;;20.90;64.20;;;;;;5046813;28;19924;-71
2021/08/02 12:16:33;;;;;;;;;;;20.90;64.30;;;;;;5044448;28;20278;-72
2021/08/02 12:19:09;;;;;;;;;;;20.90;64.40;;;;;;5046320;28;19939;-71
2021/08/02 12:21:36;;;;;;;;;;;20.90;64.40;;;;;;5044840;28;20011;-72
2021/08/02 12:24:06;;;;;;;;;;;20.90;64.40;;;;;;5044578;28;19920;-68
2021/08/02 12:26:31;;;;;;;;;;;20.90;64.40;;;;;;5032147;28;20384;-71
2021/08/02 12:28:56;;;;;;;;;;;21.00;64.40;;;;;;5026253;28;19974;-72
2021/08/02 12:31:23;;;;;;;;;;;20.90;64.30;;;;;;5026230;28;19949;-71
2021/08/02 12:33:50;;;;;;;;;;;20.90;64.40;;;;;;5026145;28;19967;-72
2021/08/02 12:36:15;;;;;;;;;;;21.00;65.10;;;;;;5026259;28;20334;-71
2021/08/02 12:38:44;;;;;;;;;;;20.90;64.50;;;;;;5025923;28;19917;-71
2021/08/02 12:41:10;;;;;;;;;;;20.90;64.30;;;;;;5026160;28;19916;-71
2021/08/02 12:43:35;;;;;;;;;;;20.90;64.20;;;;;;5026273;28;20394;-71
2021/08/02 12:46:01;;;;;;;;;;;20.90;64.10;;;;;;5025755;28;19921;-71
2021/08/02 12:48:26;;;;;;;;;;;20.90;64.00;;;;;;5025681;28;19954;-71
2021/08/02 12:50:51;;;;;;;;;;;20.90;63.90;;;;;;5025935;28;19967;-71
2021/08/02 12:53:17;;;;;;;;;;;20.90;63.90;;;;;;5026095;28;19919;-72
2021/08/02 12:55:42;;;;;;;;;;;20.90;63.90;;;;;;5026013;28;20320;-71
2021/08/02 12:58:08;;;;;;;;;;;20.90;63.90;;;;;;5023497;28;19930;-71
2021/08/02 13:00:33;;;;;;;;;;;20.90;63.90;;;;;;5021968;28;19928;-71
2021/08/02 13:02:59;;;;;;;;;;;20.90;63.90;;;;;;5025179;28;19917;-71
2021/08/02 13:05:24;;;;;;;;;;;20.90;64.00;;;;;;5025492;28;20038;-71
2021/08/02 13:07:50;;;;;;;;;;;20.90;63.90;;;;;;5043341;28;19920;-71
2021/08/02 13:10:15;;;;;;;;;;;21.00;64.00;;;;;;5045170;28;20027;-70
2021/08/02 13:12:40;;;;;;;;;;;20.90;63.90;;;;;;5045425;28;19913;-71
2021/08/02 13:15:06;;;;;;;;;;;21.00;64.00;;;;;;5045441;28;19916;-71
2021/08/02 13:17:32;;;;;;;;;;;20.90;63.90;;;;;;5043674;28;20007;-67
2021/08/02 13:19:57;;;;;;;;;;;20.90;64.00;;;;;;5045220;28;19944;-72
2021/08/02 13:22:29;;;;;;;;;;;20.90;63.90;;;;;;5045283;28;19994;-72
2021/08/02 13:27:53;;;;;;;;;;;20.90;63.90;;;;;;5010679;28;19916;-72
2021/08/02 13:30:19;;;;;;;;;;;20.90;64.00;;;;;;5045942;28;19917;-72
2021/08/02 13:32:44;;;;;;;;;;;20.90;64.10;;;;;;5045489;28;19923;-71
2021/08/02 13:35:10;;;;;;;;;;;21.00;64.20;;;;;;5045789;28;19936;-72
2021/08/02 13:37:35;;;;;;;;;;;20.90;64.20;;;;;;5044976;28;20156;-71
2021/08/02 13:40:00;;;;;;;;;;;20.90;64.10;;;;;;5044802;28;20306;-72
2021/08/02 13:42:26;;;;;;;;;;;20.90;63.90;;;;;;5044595;28;20006;-71
2021/08/02 13:44:51;;;;;;;;;;;20.90;63.90;;;;;;5044196;28;19931;-72
2021/08/02 13:47:17;;;;;;;;;;;20.90;63.80;;;;;;5044823;28;19916;-72
2021/08/02 13:49:42;;;;;;;;;;;20.90;63.90;;;;;;5044456;28;20140;-72
2021/08/02 13:52:08;;;;;;;;;;;20.90;64.10;;;;;;5045375;28;19960;-72
2021/08/02 13:54:33;;;;;;;;;;;20.90;64.30;;;;;;5044248;28;19912;-71
2021/08/02 13:56:59;;;;;;;;;;;20.90;64.60;;;;;;5044840;28;19952;-72
2021/08/02 13:59:24;;;;;;;;;;;20.90;64.80;;;;;;5044513;28;19917;-72
2021/08/02 14:01:49;;;;;;;;;;;20.90;65.00;;;;;;5045107;28;19916;-71
2021/08/02 14:04:15;;;;;;;;;;;20.90;65.10;;;;;;5027400;28;19916;-71
2021/08/02 14:06:40;;;;;;;;;;;20.90;65.20;;;;;;5045132;28;19936;-72
2021/08/02 14:09:07;;;;;;;;;;;20.90;65.20;;;;;;5044609;28;20271;-71
2021/08/02 14:11:32;;;;;;;;;;;20.90;65.30;;;;;;5043324;28;19990;-71
2021/08/02 14:13:59;;;;;;;;;;;20.90;65.40;;;;;;5044509;28;20947;-72
2021/08/02 14:16:29;;;;;;;;;;;20.90;65.40;;;;;;5044586;28;19913;-71